createdAt,value
2018-09-06T09:28:08.165Z,64.60
2018-09-06T09:28:41.554Z,64.10
2018-09-06T09:29:14.895Z,62.60
2018-09-06T09:29:47.537Z,62.60
2018-09-06T09:30:22.931Z,62.60
2018-09-06T09:30:55.697Z,64.20
2018-09-06T09:31:31.160Z,65.20
2018-09-06T09:32:04.544Z,65.10
2018-09-06T09:32:37.169Z,65.50
2018-09-06T09:33:09.796Z,63.90
2018-09-06T09:33:42.376Z,64.10
2018-09-06T09:34:15.045Z,63.20
2018-09-06T09:34:47.670Z,64.20
2018-09-06T09:35:21.032Z,62.50
2018-09-06T09:35:54.420Z,64.10
2018-09-06T09:36:26.967Z,64.10
2018-09-06T09:36:59.560Z,64.50
2018-09-06T09:37:32.660Z,64.70
2018-09-06T09:38:06.341Z,64.80
2018-09-06T09:39:11.205Z,63.90
2018-09-06T09:39:43.778Z,63.10
2018-09-06T09:40:21.430Z,64.50
2018-09-06T09:40:53.997Z,64.40
2018-09-06T09:41:27.240Z,65.40
2018-09-06T09:42:00.794Z,64.30
2018-09-06T09:42:33.417Z,64.90
2018-09-06T09:43:08.678Z,64.30
2018-09-06T09:43:42.702Z,65.00
2018-09-06T09:44:18.146Z,64.50
2018-09-06T09:44:51.497Z,65.00
2018-09-06T09:45:25.829Z,64.70
2018-09-06T09:48:04.960Z,63.40
2018-09-06T09:48:37.594Z,65.00
2018-09-06T09:49:18.041Z,64.40
2018-09-06T09:49:55.041Z,64.30
2018-09-06T09:51:03.591Z,64.20
2018-09-06T09:51:36.985Z,65.00
2018-09-06T09:52:10.568Z,65.10
2018-09-06T09:52:50.831Z,64.90
2018-09-06T09:53:39.252Z,65.00
2018-09-06T09:54:12.046Z,65.00
2018-09-06T09:54:47.514Z,65.00
2018-09-06T09:55:32.379Z,65.00
2018-09-06T09:56:04.947Z,65.20
2018-09-06T09:56:38.890Z,65.00
2018-09-06T09:58:18.930Z,65.40
2018-09-06T09:58:56.400Z,65.00
2018-09-06T09:59:46.024Z,64.40
2018-09-06T10:00:20.482Z,64.40
2018-09-06T10:03:12.827Z,66.00
2018-09-06T10:04:08.926Z,64.90
2018-09-06T10:05:31.376Z,65.60
2018-09-06T10:06:05.555Z,63.90
2018-09-06T10:06:39.668Z,64.30
2018-09-06T10:08:24.552Z,64.20
2018-09-06T10:08:58.604Z,64.30
2018-09-06T10:09:33.565Z,64.90
2018-09-06T10:10:06.618Z,64.90
2018-09-06T10:10:51.163Z,64.30
2018-09-06T10:11:24.308Z,64.30
2018-09-06T10:11:57.402Z,64.60
2018-09-06T10:12:30.124Z,64.40
2018-09-06T10:13:08.098Z,63.80
2018-09-06T10:13:41.854Z,65.90
2018-09-06T10:14:15.393Z,64.30
2018-09-06T10:15:04.341Z,62.80
2018-09-06T10:15:40.905Z,64.90
2018-09-06T10:16:13.531Z,64.80
2018-09-06T10:16:46.914Z,63.60
2018-09-06T10:17:21.848Z,63.60
2018-09-06T10:17:54.458Z,63.60
2018-09-06T10:18:27.044Z,64.10
2018-09-06T10:18:59.594Z,63.80
2018-09-06T10:19:32.165Z,64.40
2018-09-06T10:20:12.573Z,64.20
2018-09-06T10:20:45.118Z,64.00
2018-09-06T10:21:24.497Z,64.30
2018-09-06T10:21:57.875Z,64.70
2018-09-06T10:22:30.478Z,64.60
2018-09-06T10:23:03.041Z,63.90
2018-09-06T10:23:35.605Z,63.00
2018-09-06T10:24:08.216Z,62.60
2018-09-06T10:24:40.764Z,62.30
2018-09-06T10:25:13.349Z,63.60
2018-09-06T10:25:45.895Z,61.70
2018-09-06T10:26:18.425Z,63.50
2018-09-06T10:26:51.724Z,61.80
2018-09-06T10:27:24.252Z,61.80
2018-09-06T10:27:59.523Z,61.10
2018-09-06T10:28:32.024Z,61.40
2018-09-06T10:29:05.316Z,63.70
2018-09-06T10:29:39.041Z,63.30
2018-09-06T10:30:12.091Z,63.30
2018-09-06T10:30:45.912Z,62.50
2018-09-06T10:31:18.996Z,62.40
2018-09-06T10:31:52.095Z,61.10
2018-09-06T10:32:25.164Z,62.20
2018-09-06T10:32:58.224Z,62.10
2018-09-06T10:33:32.079Z,60.50
2018-09-06T10:34:05.915Z,61.90
2018-09-06T10:34:39.733Z,62.20
2018-09-06T10:35:12.799Z,62.00
2018-09-06T10:35:45.844Z,63.10
2018-09-06T10:36:18.916Z,61.60
2018-09-06T10:36:51.979Z,62.30
2018-09-06T10:37:26.257Z,61.90
2018-09-06T10:37:59.316Z,61.80
2018-09-06T10:38:32.384Z,62.20
2018-09-06T10:39:05.446Z,62.00
2018-09-06T10:39:39.439Z,62.30
2018-09-06T10:40:13.260Z,62.10
2018-09-06T10:40:46.334Z,62.00
2018-09-06T10:41:19.396Z,60.90
2018-09-06T10:41:53.228Z,61.70
2018-09-06T10:42:26.314Z,61.70
2018-09-06T10:43:04.064Z,61.50
2018-09-06T10:43:37.116Z,61.50
2018-09-06T10:44:10.187Z,61.10
2018-09-06T10:44:43.290Z,61.70
2018-09-06T10:45:16.375Z,61.30
2018-09-06T10:46:53.021Z,61.60
2018-09-06T10:47:26.084Z,61.90
2018-09-06T10:47:59.204Z,62.30
2018-09-06T10:48:32.212Z,62.00
2018-09-06T10:49:05.261Z,61.00
2018-09-06T10:49:39.108Z,60.10
2018-09-06T10:50:12.158Z,60.00
2018-09-06T10:50:45.212Z,61.50
2018-09-06T10:51:18.286Z,62.20
2018-09-06T10:51:51.356Z,61.80
2018-09-06T10:52:25.199Z,61.70
2018-09-06T10:52:58.257Z,61.70
2018-09-06T10:53:31.333Z,61.80
2018-09-06T10:54:04.424Z,61.70
2018-09-06T10:54:37.481Z,61.10
2018-09-06T10:55:10.532Z,60.80
2018-09-06T10:55:44.369Z,62.00
2018-09-06T10:56:17.433Z,61.90
2018-09-06T10:56:50.521Z,61.70
2018-09-06T10:57:23.605Z,60.20
2018-09-06T10:57:56.669Z,61.50
2018-09-06T10:58:29.729Z,61.70
2018-09-06T10:59:02.792Z,61.40
2018-09-06T10:59:35.849Z,61.90
2018-09-06T11:00:09.692Z,62.70
2018-09-06T11:00:42.779Z,62.70
2018-09-06T11:01:15.841Z,63.10
2018-09-06T11:01:48.937Z,62.10
2018-09-06T11:02:22.005Z,62.80
2018-09-06T11:02:55.065Z,62.20
2018-09-06T11:03:28.133Z,61.70
2018-09-06T11:04:01.217Z,62.60
2018-09-06T11:04:34.301Z,61.10
2018-09-06T11:05:07.416Z,61.90
2018-09-06T11:05:40.464Z,61.50
2018-09-06T11:06:13.545Z,62.30
2018-09-06T11:06:46.625Z,62.00
2018-09-06T11:07:19.861Z,62.90
2018-09-06T11:07:52.990Z,60.90
2018-09-06T11:08:26.078Z,61.30
2018-09-06T11:08:59.076Z,62.10
2018-09-06T11:09:32.149Z,62.30
2018-09-06T11:10:05.217Z,61.40
2018-09-06T11:10:38.284Z,63.00
2018-09-06T11:11:11.356Z,63.20
2018-09-06T11:11:45.203Z,62.60
2018-09-06T11:12:18.305Z,62.60
2018-09-06T11:12:51.402Z,62.10
2018-09-06T11:13:25.231Z,63.10
2018-09-06T11:13:58.280Z,62.90
2018-09-06T11:14:31.335Z,62.80
2018-09-06T11:15:10.722Z,62.60
2018-09-06T11:15:43.708Z,62.60
2018-09-06T11:16:16.808Z,63.30
2018-09-06T11:16:50.688Z,62.60
2018-09-06T11:17:23.792Z,62.50
2018-09-06T11:17:58.533Z,62.80
2018-09-06T11:18:31.568Z,63.00
2018-09-06T11:19:14.790Z,61.60
2018-09-06T11:19:51.269Z,62.30
2018-09-06T11:20:24.361Z,63.00
2018-09-06T11:20:59.410Z,61.60
2018-09-06T11:21:33.096Z,61.60
2018-09-06T11:22:38.511Z,61.30
2018-09-06T11:23:12.040Z,61.50
2018-09-06T11:23:46.453Z,61.60
2018-09-06T11:24:20.292Z,61.90
2018-09-06T11:24:53.376Z,61.90
2018-09-06T11:25:27.228Z,62.20
2018-09-06T11:26:01.062Z,61.40
2018-09-06T11:26:34.144Z,61.30
2018-09-06T11:27:10.659Z,62.60
2018-09-06T11:27:43.757Z,62.50
2018-09-06T11:28:17.572Z,62.70
2018-09-06T11:28:50.638Z,62.50
2018-09-06T11:29:23.722Z,62.30
2018-09-06T11:29:56.764Z,61.30
2018-09-06T11:30:30.605Z,60.20
2018-09-06T11:31:04.034Z,61.00
2018-09-06T11:31:37.096Z,61.50
2018-09-06T11:32:10.163Z,62.30
2018-09-06T11:32:43.241Z,62.10
2018-09-06T11:33:17.130Z,61.90
2018-09-06T11:33:51.845Z,62.00
2018-09-06T11:34:25.672Z,60.30
2018-09-06T11:34:58.761Z,60.30
2018-09-06T11:35:31.824Z,59.30
2018-09-06T11:36:04.889Z,59.20
2018-09-06T11:36:37.958Z,59.90
2018-09-06T11:37:11.035Z,61.20
2018-09-06T11:37:44.107Z,60.30
2018-09-06T11:38:17.160Z,59.90
2018-09-06T11:38:50.228Z,60.10
2018-09-06T11:39:23.277Z,58.90
2018-09-06T11:39:56.381Z,59.10
2018-09-06T11:40:29.443Z,59.00
2018-09-06T11:41:02.632Z,58.80
2018-09-06T11:41:35.709Z,59.50
2018-09-06T11:42:08.760Z,58.90
2018-09-06T11:42:41.845Z,59.10
2018-09-06T11:43:14.908Z,60.60
2018-09-06T11:43:47.973Z,59.70
2018-09-06T11:44:21.032Z,58.40
2018-09-06T11:44:54.076Z,58.30
2018-09-06T11:45:28.422Z,59.20
2018-09-06T11:46:01.505Z,59.10
2018-09-06T11:46:34.571Z,59.10
2018-09-06T11:47:07.684Z,59.20
2018-09-06T11:47:40.711Z,60.20
2018-09-06T11:48:13.739Z,60.30
2018-09-06T11:48:46.793Z,58.00
2018-09-06T11:49:19.862Z,58.40
2018-09-06T11:49:52.929Z,59.50
2018-09-06T11:50:26.022Z,58.60
2018-09-06T11:50:59.072Z,59.00
2018-09-06T11:51:32.128Z,59.40
2018-09-06T11:52:05.196Z,59.10
2018-09-06T11:52:38.476Z,59.00
2018-09-06T11:53:12.313Z,59.50
2018-09-06T11:53:45.392Z,59.30
2018-09-06T11:54:18.461Z,57.80
2018-09-06T11:54:51.537Z,57.60
2018-09-06T11:55:24.604Z,58.50
2018-09-06T11:55:57.680Z,59.10
2018-09-06T11:56:30.749Z,58.10
2018-09-06T11:57:03.832Z,59.00
2018-09-06T11:57:37.320Z,59.10
2018-09-06T11:58:10.392Z,58.40
2018-09-06T11:58:43.471Z,58.90
2018-09-06T11:59:16.512Z,59.50
2018-09-06T11:59:49.610Z,58.30
2018-09-06T12:00:22.666Z,58.40
2018-09-06T12:00:55.725Z,57.70
2018-09-06T12:01:29.560Z,57.80
2018-09-06T12:02:02.641Z,57.80
2018-09-06T12:02:35.684Z,58.00
2018-09-06T12:03:08.761Z,57.90
2018-09-06T12:03:41.820Z,57.50
2018-09-06T12:04:14.882Z,58.40
2018-09-06T12:04:48.712Z,58.00
2018-09-06T12:05:22.524Z,59.00
2018-09-06T12:05:55.584Z,58.90
2018-09-06T12:06:28.644Z,58.50
2018-09-06T12:07:01.717Z,57.90
2018-09-06T12:07:34.776Z,57.40
2018-09-06T12:08:07.852Z,57.80
2018-09-06T12:08:41.693Z,57.70
2018-09-06T12:09:14.758Z,57.70
2018-09-06T12:09:47.811Z,58.90
2018-09-06T12:10:20.870Z,59.00
2018-09-06T12:10:53.924Z,58.50
2018-09-06T12:11:26.984Z,57.90
2018-09-06T12:12:00.084Z,58.30
2018-09-06T12:12:33.129Z,57.70
2018-09-06T12:13:06.215Z,57.80
2018-09-06T12:13:39.334Z,58.50
2018-09-06T12:14:12.348Z,58.70
2018-09-06T12:14:45.421Z,59.00
2018-09-06T12:15:18.517Z,58.90
2018-09-06T12:15:51.589Z,59.10
2018-09-06T12:16:24.652Z,59.10
2018-09-06T12:16:57.735Z,58.90
2018-09-06T12:17:30.797Z,58.30
2018-09-06T12:18:03.870Z,59.10
2018-09-06T12:18:36.937Z,58.90
2018-09-06T12:19:10.216Z,59.40
2018-09-06T12:19:43.278Z,59.40
2018-09-06T12:20:16.348Z,57.40
2018-09-06T12:20:49.397Z,58.80
2018-09-06T12:21:22.473Z,58.40
2018-09-06T12:21:55.503Z,58.30
2018-09-06T12:22:28.560Z,58.50
2018-09-06T12:23:01.645Z,58.50
2018-09-06T12:23:35.701Z,58.90
2018-09-06T12:24:08.742Z,58.90
2018-09-06T12:24:41.825Z,58.80
2018-09-06T12:25:14.903Z,57.70
2018-09-06T12:25:48.014Z,58.00
2018-09-06T12:26:21.073Z,57.10
2018-09-06T12:26:54.911Z,57.80
2018-09-06T12:27:27.986Z,57.80
2018-09-06T12:28:01.813Z,57.80
2018-09-06T12:28:35.072Z,58.20
2018-09-06T12:29:08.142Z,58.70
2018-09-06T12:29:41.223Z,57.70
2018-09-06T12:30:14.293Z,57.70
2018-09-06T12:30:47.352Z,56.00
2018-09-06T12:31:21.200Z,56.20
2018-09-06T12:31:54.290Z,56.30
2018-09-06T12:32:27.640Z,56.90
2018-09-06T12:33:00.897Z,56.90
2018-09-06T12:33:34.847Z,56.90
2018-09-06T12:34:07.808Z,56.80
2018-09-06T12:34:41.116Z,56.90
2018-09-06T12:35:14.952Z,57.60
2018-09-06T12:35:48.029Z,57.60
2018-09-06T12:36:21.099Z,57.00
2018-09-06T12:36:54.152Z,57.10
2018-09-06T12:37:27.199Z,56.60
2018-09-06T12:38:00.296Z,56.20
2018-09-06T12:38:33.382Z,56.80
2018-09-06T12:39:06.643Z,56.60
2018-09-06T12:39:40.699Z,56.20
2018-09-06T12:40:13.768Z,56.20
2018-09-06T12:40:46.820Z,55.90
2018-09-06T12:41:20.640Z,57.50
2018-09-06T12:41:53.913Z,57.50
2018-09-06T12:42:27.185Z,57.70
2018-09-06T12:43:00.258Z,56.90
2018-09-06T12:43:33.327Z,56.90
2018-09-06T12:44:06.400Z,56.10
2018-09-06T12:44:39.448Z,57.10
2018-09-06T12:45:12.532Z,57.60
2018-09-06T12:45:45.576Z,58.20
2018-09-06T12:46:19.401Z,57.40
2018-09-06T12:46:52.480Z,57.40
2018-09-06T12:47:25.546Z,58.40
2018-09-06T12:47:58.610Z,58.20
2018-09-06T12:48:31.690Z,56.70
2018-09-06T12:49:04.795Z,55.90
2018-09-06T12:49:37.929Z,57.10
2018-09-06T12:50:10.921Z,57.90
2018-09-06T12:50:44.015Z,58.40
2018-09-06T12:51:17.052Z,58.70
2018-09-06T12:51:50.881Z,56.50
2018-09-06T12:52:23.951Z,56.50
2018-09-06T12:52:57.008Z,57.10
2018-09-06T12:53:30.101Z,57.90
2018-09-06T12:54:03.176Z,57.80
2018-09-06T12:54:36.231Z,57.30
2018-09-06T12:55:09.317Z,57.80
2018-09-06T12:55:42.396Z,57.70
2018-09-06T12:56:15.460Z,56.50
2018-09-06T12:56:48.535Z,56.80
2018-09-06T12:57:21.604Z,56.90
2018-09-06T12:57:55.424Z,57.60
2018-09-06T12:58:28.508Z,57.60
2018-09-06T12:59:01.580Z,58.20
2018-09-06T12:59:34.617Z,58.00
2018-09-06T13:00:08.439Z,58.40
2018-09-06T13:00:41.500Z,58.40
2018-09-06T13:01:14.571Z,58.70
2018-09-06T13:01:48.384Z,58.10
2018-09-06T13:02:21.465Z,58.10
2018-09-06T13:02:54.516Z,58.10
2018-09-06T13:03:27.609Z,58.30
2018-09-06T13:04:00.688Z,58.70
2018-09-06T13:04:33.752Z,58.80
2018-09-06T13:05:06.827Z,59.10
2018-09-06T13:05:39.875Z,58.90
2018-09-06T13:06:13.707Z,58.70
2018-09-06T13:06:46.977Z,58.70
2018-09-06T13:07:20.027Z,59.20
2018-09-06T13:07:53.989Z,59.60
2018-09-06T13:08:27.892Z,59.50
2018-09-06T13:09:00.986Z,59.10
2018-09-06T13:09:34.072Z,59.30
2018-09-06T13:10:07.899Z,59.20
2018-09-06T13:10:40.962Z,59.30
2018-09-06T13:11:14.050Z,59.40
2018-09-06T13:11:47.129Z,59.50
2018-09-06T13:12:20.172Z,59.30
2018-09-06T13:12:54.011Z,59.90
2018-09-06T13:13:27.075Z,59.90
2018-09-06T13:14:01.674Z,59.90
2018-09-06T13:14:34.724Z,59.90
2018-09-06T13:15:08.558Z,60.20
2018-09-06T13:15:41.600Z,60.10
2018-09-06T13:16:14.648Z,60.10
2018-09-06T13:16:47.715Z,60.30
2018-09-06T13:17:20.785Z,60.50
2018-09-06T13:17:53.825Z,60.00
2018-09-06T13:18:26.890Z,60.30
2018-09-06T13:18:59.960Z,60.30
2018-09-06T13:19:33.035Z,60.70
2018-09-06T13:20:06.101Z,60.60
2018-09-06T13:20:39.908Z,60.90
2018-09-06T13:21:12.962Z,60.90
2018-09-06T13:21:46.017Z,61.10
2018-09-06T13:22:19.074Z,61.10
2018-09-06T13:22:52.148Z,61.40
2018-09-06T13:23:25.204Z,61.60
2018-09-06T13:23:58.269Z,61.50
2018-09-06T13:24:31.333Z,61.60
2018-09-06T13:25:04.385Z,61.60
2018-09-06T13:25:37.460Z,61.30
2018-09-06T13:26:11.272Z,62.40
2018-09-06T13:26:44.344Z,61.70
2018-09-06T13:27:19.074Z,61.90
2018-09-06T13:27:52.077Z,61.90
2018-09-06T13:28:25.121Z,62.00
2018-09-06T13:28:58.970Z,61.90
2018-09-06T13:29:32.009Z,61.90
2018-09-06T13:30:05.073Z,61.60
2018-09-06T13:30:38.149Z,62.10
2018-09-06T13:31:11.218Z,62.20
2018-09-06T13:31:44.294Z,62.10
2018-09-06T13:32:18.121Z,62.30
2018-09-06T13:32:51.187Z,62.20
2018-09-06T13:33:24.266Z,62.50
2018-09-06T13:33:57.345Z,62.70
2018-09-06T13:34:30.410Z,62.10
2018-09-06T13:35:03.468Z,62.70
2018-09-06T13:35:36.559Z,63.30
2018-09-06T13:36:09.591Z,62.30
2018-09-06T13:36:42.700Z,62.30
2018-09-06T13:37:15.757Z,62.40
2018-09-06T13:37:48.840Z,62.70
2018-09-06T13:38:21.884Z,62.80
2018-09-06T13:38:54.975Z,62.90
2018-09-06T13:39:28.052Z,62.80
2018-09-06T13:40:01.129Z,62.90
2018-09-06T13:40:40.133Z,63.10
2018-09-06T13:41:14.306Z,63.20
2018-09-06T13:41:47.392Z,63.10
2018-09-06T13:42:21.270Z,63.40
2018-09-06T13:42:54.390Z,63.40
2018-09-06T13:43:29.406Z,63.40
2018-09-06T13:44:02.478Z,63.20
2018-09-06T13:44:35.605Z,63.30
2018-09-06T13:45:08.721Z,63.40
2018-09-06T13:45:42.933Z,63.50
2018-09-06T13:46:16.816Z,63.60
2018-09-06T13:46:51.409Z,63.60
2018-09-06T13:49:26.453Z,63.80
2018-09-06T13:50:05.385Z,63.80
2018-09-06T13:50:45.107Z,63.90
2018-09-06T13:52:35.928Z,63.50
2018-09-06T13:53:09.060Z,63.80
2018-09-06T13:53:47.746Z,63.80
2018-09-06T13:54:38.024Z,64.20
2018-09-06T13:55:11.369Z,64.10
2018-09-06T13:55:51.005Z,64.20
2018-09-06T13:56:24.130Z,64.90
2018-09-06T13:56:57.313Z,64.40
2018-09-06T13:57:30.422Z,64.40
2018-09-06T13:58:05.758Z,64.30
2018-09-06T13:58:42.416Z,64.30
2018-09-06T13:59:20.902Z,64.30
2018-09-06T16:10:12.789Z,70.20
2018-09-06T16:10:45.827Z,70.40
2018-09-06T16:11:18.977Z,70.20
2018-09-06T16:11:51.953Z,70.00
2018-09-06T16:12:25.006Z,70.20
2018-09-06T16:12:58.034Z,70.30
2018-09-06T16:13:31.836Z,70.10
2018-09-06T16:14:04.872Z,70.20
2018-09-06T16:14:37.912Z,70.40
2018-09-06T16:15:11.717Z,69.90
2018-09-06T16:15:44.763Z,69.90
2018-09-06T16:16:17.810Z,70.20
2018-09-06T16:16:50.883Z,70.30
2018-09-06T16:17:24.691Z,69.70
2018-09-06T16:17:57.728Z,69.70
2018-09-06T16:18:31.523Z,70.40
2018-09-06T16:19:04.569Z,71.20
2018-09-06T16:19:37.613Z,70.40
2018-09-06T16:20:10.643Z,70.60
2018-09-06T16:20:43.691Z,70.60
2018-09-06T16:21:16.739Z,70.70
2018-09-06T16:21:49.772Z,71.40
2018-09-06T16:22:23.581Z,70.60
2018-09-06T16:22:56.632Z,70.60
2018-09-06T16:23:29.694Z,70.70
2018-09-06T16:24:02.715Z,71.30
2018-09-06T16:24:35.776Z,70.00
2018-09-06T16:25:08.784Z,70.10
2018-09-06T16:25:41.813Z,70.10
2018-09-06T16:26:14.867Z,70.00
2018-09-06T16:26:47.919Z,70.00
2018-09-06T16:27:20.955Z,70.10
2018-09-06T16:27:53.984Z,70.00
2018-09-06T16:28:27.032Z,70.00
2018-09-06T16:29:00.063Z,70.00
2018-09-06T16:29:33.271Z,70.00
2018-09-06T16:30:06.464Z,70.00
2018-09-06T16:30:39.482Z,70.00
2018-09-06T16:31:12.528Z,70.20
2018-09-06T16:31:46.341Z,70.30
2018-09-06T16:32:20.172Z,70.40
2018-09-06T16:32:53.199Z,70.40
2018-09-06T16:33:26.243Z,70.50
2018-09-06T16:33:59.289Z,70.50
2018-09-06T16:34:32.325Z,70.30
2018-09-06T16:35:05.373Z,70.40
2018-09-06T16:35:38.419Z,70.80
2018-09-06T16:36:11.470Z,70.30
2018-09-06T16:36:44.521Z,70.70
2018-09-06T16:37:18.335Z,70.40
2018-09-06T16:37:51.396Z,70.40
2018-09-06T16:38:24.409Z,70.20
2018-09-06T16:38:58.216Z,70.60
2018-09-06T16:39:31.247Z,70.50
2018-09-06T16:40:04.329Z,70.20
2018-09-06T16:40:37.360Z,70.10
2018-09-06T16:41:10.403Z,70.00
2018-09-06T16:41:43.487Z,70.30
2018-09-06T16:42:16.520Z,70.20
2018-09-06T16:42:49.553Z,70.10
2018-09-06T16:43:22.599Z,70.00
2018-09-06T16:43:55.635Z,71.00
